Time;durP1;ratioP1;P1;durP2;ratioP2;P2;SDS_P1;SDS_P2;PMS_P1;PMS_P2;Temp;Humidity;BMP_temperature;BMP_pressure;BME280_temperature;BME280_humidity;BME280_pressure;Samples;Min_cycle;Max_cycle;Signal;HPM_P1;HPM_P2
2023/09/12 00:00:08;;;;;;;0.70;0.70;;;;;;;17.64;69.99;99607.41;5112729;28;20199;-68
2023/09/12 00:02:37;;;;;;;0.80;0.80;;;;;;;17.62;70.56;99612.69;5113356;28;20230;-68
2023/09/12 00:05:04;;;;;;;0.77;0.70;;;;;;;17.61;70.99;99621.38;5112877;28;20202;-67
2023/09/12 00:07:31;;;;;;;0.67;0.67;;;;;;;17.62;71.36;99611.84;5113260;28;20203;-68
2023/09/12 00:09:58;;;;;;;1.67;0.70;;;;;;;17.59;71.48;99618.03;5113325;28;20248;-68
2023/09/12 00:12:25;;;;;;;0.70;0.70;;;;;;;17.42;71.95;99599.94;5113491;28;20222;-68
2023/09/12 00:14:52;;;;;;;1.13;1.03;;;;;;;17.49;72.17;99629.78;5113520;28;20225;-68
2023/09/12 00:17:19;;;;;;;0.77;0.77;;;;;;;17.31;72.76;99608.31;5112894;28;20199;-68
2023/09/12 00:19:47;;;;;;;0.77;0.77;;;;;;;17.46;72.76;99632.56;5113160;28;20218;-68
2023/09/12 00:22:14;;;;;;;0.90;0.90;;;;;;;17.43;72.72;99627.53;5112936;28;20677;-68
2023/09/12 00:24:40;;;;;;;0.87;0.87;;;;;;;17.41;72.81;99629.38;5112939;28;20202;-68
2023/09/12 00:27:07;;;;;;;0.80;0.80;;;;;;;17.37;73.27;99625.28;5108916;28;20727;-67
2023/09/12 00:29:34;;;;;;;1.00;1.00;;;;;;;17.27;72.90;99619.75;5112501;28;20195;-68
2023/09/12 00:32:01;;;;;;;1.50;1.50;;;;;;;17.37;73.29;99638.25;5112520;28;20248;-68
2023/09/12 00:34:28;;;;;;;0.80;0.80;;;;;;;17.36;73.30;99630.53;5112540;28;20697;-68
2023/09/12 00:36:56;;;;;;;0.70;0.70;;;;;;;17.38;73.57;99634.75;5111617;28;20198;-68
2023/09/12 00:39:22;;;;;;;1.07;1.07;;;;;;;17.41;73.79;99641.50;5112457;28;20214;-68
2023/09/12 00:41:49;;;;;;;0.77;0.77;;;;;;;17.39;73.39;99638.97;5108646;28;20243;-68
2023/09/12 00:44:16;;;;;;;0.70;0.70;;;;;;;17.38;73.50;99641.66;5112403;28;20667;-68
2023/09/12 00:46:44;;;;;;;1.00;1.00;;;;;;;17.34;73.31;99638.41;5112703;28;20195;-68
2023/09/12 00:49:13;;;;;;;1.00;1.00;;;;;;;17.21;73.80;99614.06;5112511;28;20194;-68
2023/09/12 00:51:41;;;;;;;1.03;1.00;;;;;;;17.34;73.72;99641.00;5112475;28;20681;-68
2023/09/12 00:54:09;;;;;;;0.80;0.80;;;;;;;17.30;73.71;99642.06;5112286;28;20209;-68
2023/09/12 00:56:36;;;;;;;0.60;0.60;;;;;;;17.27;73.96;99642.25;5112348;28;20198;-67
2023/09/12 00:59:04;;;;;;;0.77;0.77;;;;;;;17.27;74.01;99632.72;5112435;28;20263;-68
2023/09/12 01:01:32;;;;;;;3.67;1.03;;;;;;;17.26;74.67;99637.97;5111947;28;20210;-67
2023/09/12 01:03:59;;;;;;;0.70;0.70;;;;;;;17.27;74.50;99637.06;5112421;28;20760;-69
2023/09/12 01:06:27;;;;;;;1.27;0.90;;;;;;;17.26;74.40;99636.22;5111955;28;20195;-67
2023/09/12 01:08:54;;;;;;;1.13;1.13;;;;;;;17.25;74.71;99634.53;5108253;28;20239;-68
2023/09/12 01:11:23;;;;;;;1.27;1.17;;;;;;;17.22;74.89;99637.28;5112446;28;20662;-68
2023/09/12 01:13:50;;;;;;;1.40;1.30;;;;;;;17.20;74.70;99631.38;5111861;28;20222;-68
2023/09/12 01:16:16;;;;;;;0.70;0.70;;;;;;;17.18;75.29;99640.16;5111751;28;20740;-68
2023/09/12 01:18:45;;;;;;;1.00;1.00;;;;;;;17.16;75.38;99642.81;5111716;28;20214;-68
2023/09/12 01:21:38;;;;;;;0.77;0.77;;;;;;;17.16;75.68;99649.75;5111657;28;20225;-68
2023/09/12 01:24:21;;;;;;;0.77;0.77;;;;;;;17.14;76.20;99649.00;5107786;28;20740;-68
2023/09/12 01:27:00;;;;;;;0.90;0.90;;;;;;;17.14;76.90;99649.00;5111617;28;20198;-68
2023/09/12 01:29:30;;;;;;;0.90;0.90;;;;;;;17.09;76.93;99649.22;5112014;28;20199;-68
2023/09/12 01:31:59;;;;;;;0.87;0.87;;;;;;;17.05;77.21;99646.91;5111612;28;20255;-69
2023/09/12 01:34:26;;;;;;;0.90;0.90;;;;;;;17.00;77.90;99644.53;5111954;28;20267;-68
2023/09/12 01:36:53;;;;;;;2.47;1.10;;;;;;;16.97;78.28;99649.03;5111617;28;20278;-68
2023/09/12 01:39:20;;;;;;;0.80;0.80;;;;;;;16.94;79.08;99649.19;5111319;28;20218;-68
2023/09/12 01:41:49;;;;;;;0.90;0.90;;;;;;;16.91;79.26;99654.53;5111288;28;20201;-68
2023/09/12 01:44:16;;;;;;;0.80;0.80;;;;;;;16.90;79.48;99655.47;5111680;28;20206;-68
2023/09/12 01:46:45;;;;;;;0.80;0.80;;;;;;;16.89;79.82;99656.38;5111513;28;20764;-68
2023/09/12 01:49:14;;;;;;;0.93;0.93;;;;;;;16.87;80.18;99653.84;5110852;28;20197;-69
2023/09/12 01:51:41;;;;;;;0.80;0.80;;;;;;;16.83;80.07;99656.69;5111621;28;20244;-68
2023/09/12 01:54:08;;;;;;;0.60;0.60;;;;;;;16.78;80.18;99657.75;5111290;28;20217;-68
2023/09/12 01:56:36;;;;;;;0.70;0.70;;;;;;;16.78;80.74;99662.94;5111407;28;20208;-68
2023/09/12 01:59:04;;;;;;;0.90;0.90;;;;;;;16.77;80.91;99661.25;5110944;28;20643;-68
2023/09/12 02:01:30;;;;;;;0.73;0.73;;;;;;;16.75;81.08;99657.94;5111469;28;20198;-68
2023/09/12 02:03:58;;;;;;;0.80;0.80;;;;;;;16.72;81.25;99660.66;5111238;28;20190;-68
2023/09/12 02:06:25;;;;;;;1.00;1.00;;;;;;;16.72;82.17;99662.41;5111367;28;20248;-68
2023/09/12 02:08:52;;;;;;;0.73;0.73;;;;;;;16.69;82.26;99655.66;5111096;28;20195;-67
2023/09/12 02:11:18;;;;;;;0.90;0.90;;;;;;;16.66;82.81;99660.16;5111125;28;20195;-68
2023/09/12 02:13:45;;;;;;;0.70;0.70;;;;;;;16.65;83.37;99656.72;5111144;28;20221;-68
2023/09/12 02:16:12;;;;;;;0.50;0.50;;;;;;;16.58;83.71;99651.91;5111028;28;20253;-68
2023/09/12 02:18:39;;;;;;;0.80;0.80;;;;;;;16.62;83.83;99656.88;5111140;28;20637;-68
2023/09/12 02:21:07;;;;;;;0.83;0.83;;;;;;;16.60;84.72;99656.13;5110577;28;20198;-68
2023/09/12 02:23:33;;;;;;;0.93;0.93;;;;;;;16.61;84.64;99662.09;5110353;28;20198;-68
2023/09/12 02:26:00;;;;;;;0.90;0.90;;;;;;;16.59;84.72;99662.22;5111258;28;20252;-68
2023/09/12 02:28:27;;;;;;;0.90;0.90;;;;;;;16.59;84.56;99659.63;5111247;28;20195;-68
2023/09/12 02:30:54;;;;;;;0.70;0.70;;;;;;;16.58;84.95;99657.94;5110668;28;20200;-68
2023/09/12 02:33:21;;;;;;;0.80;0.80;;;;;;;16.57;85.18;99656.28;5110917;28;20207;-68
2023/09/12 02:35:47;;;;;;;1.00;1.00;;;;;;;16.49;85.25;99645.44;5110716;28;20289;-68
2023/09/12 02:38:16;;;;;;;0.87;0.87;;;;;;;16.52;85.44;99653.03;5110525;28;20201;-68
2023/09/12 02:40:42;;;;;;;0.97;0.97;;;;;;;16.52;85.58;99660.81;5110899;28;20211;-68
2023/09/12 02:43:09;;;;;;;0.80;0.80;;;;;;;16.52;85.74;99658.22;5110930;28;20256;-67
2023/09/12 02:45:39;;;;;;;0.90;0.90;;;;;;;16.31;85.66;99619.66;5110613;28;20194;-68
2023/09/12 02:48:05;;;;;;;0.70;0.70;;;;;;;16.49;85.51;99658.38;5107099;28;20209;-68
2023/09/12 02:50:32;;;;;;;0.90;0.90;;;;;;;16.45;85.52;99656.84;5110197;28;20191;-68
2023/09/12 02:52:59;;;;;;;3.80;0.80;;;;;;;16.44;85.97;99659.53;5110322;28;20194;-68
2023/09/12 02:55:27;;;;;;;0.97;0.97;;;;;;;16.41;86.11;99659.69;5110724;28;20260;-68
2023/09/12 02:57:54;;;;;;;0.73;0.73;;;;;;;16.40;86.19;99658.00;5110501;28;20370;-68
2023/09/12 03:00:20;;;;;;;1.10;1.00;;;;;;;16.33;86.04;99654.88;5110582;28;20571;-67
2023/09/12 03:02:47;;;;;;;0.70;0.70;;;;;;;16.21;86.34;99645.13;5110627;28;20255;-68
2023/09/12 03:05:14;;;;;;;0.70;0.70;;;;;;;16.25;86.23;99654.44;5110721;28;20203;-68
2023/09/12 03:07:41;;;;;;;0.80;0.80;;;;;;;16.22;86.20;99659.72;5110489;28;20255;-68
2023/09/12 03:10:08;;;;;;;0.93;0.93;;;;;;;16.21;86.44;99658.06;5110448;28;20192;-68
2023/09/12 03:12:37;;;;;;;0.80;0.80;;;;;;;16.20;86.54;99658.97;5110313;28;20693;-68
2023/09/12 03:15:05;;;;;;;1.13;1.13;;;;;;;16.17;86.30;99661.72;5110538;28;20202;-68
2023/09/12 03:17:32;;;;;;;1.30;1.20;;;;;;;16.12;85.90;99661.91;5110324;28;20198;-68
2023/09/12 03:20:00;;;;;;;1.00;1.00;;;;;;;16.10;85.68;99655.16;5110757;28;20215;-68
2023/09/12 03:22:26;;;;;;;0.73;0.73;;;;;;;16.09;85.20;99663.84;5108682;28;20254;-68
2023/09/12 03:24:53;;;;;;;1.23;1.20;;;;;;;15.99;84.83;99657.44;5109261;28;20197;-69
2023/09/12 03:27:20;;;;;;;0.60;0.60;;;;;;;16.04;84.87;99670.97;5110320;28;20196;-68
2023/09/12 03:29:49;;;;;;;7.77;1.67;;;;;;;15.98;84.79;99656.59;5110071;28;20262;-68
2023/09/12 03:32:15;;;;;;;1.17;1.17;;;;;;;15.98;84.90;99660.91;5110035;28;20203;-68
2023/09/12 03:47:39;;;;;;;3.10;1.13;;;;;;;16.50;82.21;99680.75;5127930;27;20562;-68
2023/09/12 03:50:07;;;;;;;1.20;1.20;;;;;;;16.36;82.03;99677.16;5129259;28;20692;-68
2023/09/12 03:52:33;;;;;;;0.93;0.93;;;;;;;16.28;82.56;99685.31;5128818;28;20205;-68
2023/09/12 03:55:01;;;;;;;1.27;1.20;;;;;;;16.19;83.59;99683.16;5128900;28;20194;-68
2023/09/12 03:57:27;;;;;;;4.80;1.07;;;;;;;16.09;84.01;99681.94;5128551;28;20207;-67
2023/09/12 03:59:54;;;;;;;1.40;1.40;;;;;;;16.04;84.32;99683.91;5128872;27;20259;-68
2023/09/12 04:02:21;;;;;;;1.17;1.17;;;;;;;15.91;85.45;99681.06;5129066;27;20705;-67
2023/09/12 04:04:49;;;;;;;1.50;1.20;;;;;;;15.85;85.77;99686.53;5128992;27;20198;-68
2023/09/12 04:07:16;;;;;;;1.67;1.67;;;;;;;15.79;86.79;99691.16;5129028;27;20558;-68
2023/09/12 04:09:42;;;;;;;1.30;1.30;;;;;;;15.73;87.39;99693.09;5128715;27;20197;-68
2023/09/12 04:12:09;;;;;;;0.77;0.73;;;;;;;15.69;88.61;99694.16;5128319;28;20631;-68
2023/09/12 04:14:36;;;;;;;0.97;0.97;;;;;;;15.65;89.33;99694.38;5128224;27;20201;-64
2023/09/12 04:17:03;;;;;;;1.10;1.10;;;;;;;15.58;89.89;99690.38;5128324;27;20669;-64
2023/09/12 04:19:31;;;;;;;2.40;1.40;;;;;;;15.56;90.49;99685.28;5128124;28;20596;-65
2023/09/12 04:22:00;;;;;;;4.47;1.13;;;;;;;15.54;91.15;99692.25;5128028;28;20200;-64
2023/09/12 04:24:26;;;;;;;1.00;1.00;;;;;;;15.53;91.35;99690.59;5127601;27;20254;-64
2023/09/12 04:26:55;;;;;;;1.00;1.00;;;;;;;15.48;91.98;99687.38;5128069;28;20653;-64
2023/09/12 04:29:21;;;;;;;1.47;1.13;;;;;;;15.42;92.03;99672.13;5127767;27;20200;-65
2023/09/12 04:31:48;;;;;;;1.47;1.37;;;;;;;15.57;92.49;99692.13;5127571;27;20198;-64
2023/09/12 04:34:15;;;;;;;1.13;1.13;;;;;;;15.62;92.52;99685.00;5127929;27;20227;-64
2023/09/12 04:36:41;;;;;;;1.60;1.50;;;;;;;15.68;92.38;99689.91;5127541;27;20685;-64
2023/09/12 04:39:09;;;;;;;0.87;0.87;;;;;;;15.77;92.46;99685.22;5127638;28;20213;-64
2023/09/12 04:41:37;;;;;;;1.63;1.50;;;;;;;15.88;92.53;99695.88;5127873;27;20194;-64
2023/09/12 04:44:04;;;;;;;1.57;1.57;;;;;;;15.97;92.24;99695.44;5128166;28;20199;-64
2023/09/12 04:46:31;;;;;;;1.37;1.37;;;;;;;16.08;91.52;99698.38;5126068;28;20218;-63
2023/09/12 04:48:57;;;;;;;1.80;1.77;;;;;;;16.23;90.56;99689.88;5113647;28;20194;-64
2023/09/12 04:51:24;;;;;;;5.50;1.13;;;;;;;16.34;90.25;99685.00;5114572;28;20221;-64
2023/09/12 04:53:51;;;;;;;1.57;1.57;;;;;;;16.47;90.23;99699.03;5113685;28;20196;-63
2023/09/12 04:56:19;;;;;;;1.63;1.53;;;;;;;16.59;89.50;99690.69;5114101;28;20214;-64
2023/09/12 04:58:46;;;;;;;4.97;1.40;;;;;;;16.73;88.44;99703.78;5114322;28;20255;-64
2023/09/12 05:01:13;;;;;;;2.10;2.00;;;;;;;16.88;87.59;99698.72;5113873;28;20199;-64
2023/09/12 05:03:39;;;;;;;3.90;1.50;;;;;;;16.96;86.77;99694.00;5113895;28;20259;-64
2023/09/12 05:06:06;;;;;;;3.77;2.30;;;;;;;17.12;85.65;99700.06;5113896;28;20256;-64
2023/09/12 05:08:33;;;;;;;1.57;1.47;;;;;;;17.22;85.92;99688.31;5113860;28;20223;-64
2023/09/12 05:10:59;;;;;;;1.93;1.43;;;;;;;17.42;85.23;99693.25;5113232;28;20190;-64
2023/09/12 05:13:27;;;;;;;1.30;1.30;;;;;;;17.55;84.30;99698.59;5113964;28;20670;-64
2023/09/12 05:15:55;;;;;;;1.57;1.50;;;;;;;17.72;83.64;99698.56;5113546;28;20217;-64
2023/09/12 05:18:22;;;;;;;1.40;1.40;;;;;;;17.93;82.31;99699.16;5113172;28;20259;-63
2023/09/12 05:20:49;;;;;;;1.20;1.20;;;;;;;18.10;82.39;99699.03;5113150;28;20260;-64
2023/09/12 05:23:16;;;;;;;1.10;1.10;;;;;;;18.26;80.74;99697.25;5113614;28;20255;-64
2023/09/12 05:25:42;;;;;;;1.20;1.20;;;;;;;18.45;80.12;99695.28;5113301;27;20248;-64
2023/09/12 05:28:09;;;;;;;0.97;0.97;;;;;;;18.64;79.00;99698.50;5116834;27;20199;-64
2023/09/12 05:30:37;;;;;;;1.10;1.10;;;;;;;18.85;77.75;99705.06;5113315;28;20207;-64
2023/09/12 05:33:04;;;;;;;2.57;1.20;;;;;;;19.04;75.10;99709.16;5113296;28;20259;-64
2023/09/12 05:35:31;;;;;;;1.80;1.70;;;;;;;19.22;76.23;99708.06;5112589;28;20252;-63
2023/09/12 05:37:58;;;;;;;1.30;1.30;;;;;;;19.41;76.86;99710.41;5112389;28;20284;-64
2023/09/12 05:40:25;;;;;;;1.03;1.03;;;;;;;19.52;73.46;99711.41;5104366;28;20230;-63
2023/09/12 05:42:52;;;;;;;0.93;0.93;;;;;;;19.69;73.05;99700.78;5111785;28;21359;-63
2023/09/12 05:45:18;;;;;;;1.20;1.20;;;;;;;19.86;73.40;99703.16;5111845;28;20684;-64
2023/09/12 05:47:48;;;;;;;1.00;1.00;;;;;;;20.00;72.74;99696.25;5112082;28;20268;-63
2023/09/12 05:50:14;;;;;;;4.87;1.30;;;;;;;20.12;69.85;99698.06;5110718;28;20213;-63
2023/09/12 05:52:42;;;;;;;1.00;1.00;;;;;;;20.29;71.46;99697.84;5111211;27;20260;-63
2023/09/12 05:55:09;;;;;;;4.23;1.07;;;;;;;20.45;71.44;99698.50;5111399;28;20248;-63
2023/09/12 05:57:36;;;;;;;4.13;1.10;;;;;;;20.61;71.47;99695.72;5111809;28;20687;-63
2023/09/12 06:00:10;;;;;;;1.10;1.10;;;;;;;20.80;69.00;99697.00;5111239;28;20197;-65
2023/09/12 06:02:36;;;;;;;1.33;1.27;;;;;;;20.92;68.62;99695.31;5112542;27;20200;-64
2023/09/12 06:05:06;;;;;;;1.00;1.00;;;;;;;21.06;69.20;99702.22;5112362;28;21044;-64
2023/09/12 06:07:33;;;;;;;0.83;0.83;;;;;;;21.15;68.63;99696.41;5112052;28;20201;-64
2023/09/12 06:09:59;;;;;;;1.40;1.30;;;;;;;21.18;69.67;99701.41;5112268;28;20226;-64
2023/09/12 06:12:26;;;;;;;1.00;1.00;;;;;;;21.27;70.91;99705.97;5112112;28;20219;-63
2023/09/12 06:14:55;;;;;;;1.00;1.00;;;;;;;21.43;68.07;99701.34;5112132;28;20209;-64
2023/09/12 06:17:21;;;;;;;1.20;1.20;;;;;;;21.63;67.55;99703.41;5110990;28;20234;-64
2023/09/12 06:19:49;;;;;;;0.83;0.83;;;;;;;21.68;64.84;99701.28;5111779;28;20576;-63
2023/09/12 06:22:18;;;;;;;2.97;1.20;;;;;;;21.71;65.80;99703.69;5107781;28;20304;-64
2023/09/12 06:24:44;;;;;;;0.90;0.90;;;;;;;21.90;63.20;99709.31;5112172;28;20231;-63
2023/09/12 06:27:12;;;;;;;2.13;0.93;;;;;;;22.13;61.07;99710.28;5111241;28;20262;-64
2023/09/12 06:29:39;;;;;;;1.03;0.93;;;;;;;22.24;62.95;99704.25;5110790;28;20274;-63
2023/09/12 06:32:06;;;;;;;0.60;0.60;;;;;;;22.38;62.52;99712.75;5111604;28;20598;-63
2023/09/12 06:34:33;;;;;;;1.37;1.00;;;;;;;22.53;62.08;99705.53;5111528;28;20503;-64
2023/09/12 06:36:59;;;;;;;1.10;1.10;;;;;;;22.75;61.28;99715.25;5111782;28;20214;-63
2023/09/12 06:39:27;;;;;;;0.63;0.63;;;;;;;22.70;61.39;99676.41;5111068;28;20247;-64
2023/09/12 06:41:54;;;;;;;0.97;0.80;;;;;;;23.10;61.80;99720.44;5111122;28;20202;-64
2023/09/12 06:44:21;;;;;;;1.27;0.70;;;;;;;23.20;58.34;99716.19;5111432;28;20318;-63
2023/09/12 06:46:47;;;;;;;0.80;0.80;;;;;;;23.31;57.06;99719.63;5110989;28;20778;-64
2023/09/12 06:49:14;;;;;;;0.80;0.80;;;;;;;23.50;56.26;99727.72;5112669;27;20194;-64
2023/09/12 06:51:41;;;;;;;2.93;0.80;;;;;;;23.58;56.37;99732.38;5111134;28;20199;-64
2023/09/12 06:54:08;;;;;;;0.80;0.80;;;;;;;23.66;58.02;99724.72;5111639;28;20198;-64
2023/09/12 06:56:37;;;;;;;1.20;0.80;;;;;;;23.68;56.79;99717.63;5111316;28;20210;-63
2023/09/12 06:59:04;;;;;;;0.60;0.60;;;;;;;23.88;56.20;99723.84;5111617;28;20594;-63
2023/09/12 07:01:31;;;;;;;1.03;1.03;;;;;;;24.06;57.41;99711.94;5111717;28;20260;-63
2023/09/12 07:03:57;;;;;;;0.70;0.70;;;;;;;24.18;54.84;99712.72;5111470;28;20271;-64
2023/09/12 07:06:24;;;;;;;0.70;0.70;;;;;;;24.45;53.78;99719.19;5112790;27;20191;-64
2023/09/12 07:08:52;;;;;;;0.50;0.50;;;;;;;24.56;54.20;99716.50;5109953;28;20195;-63
2023/09/12 07:11:19;;;;;;;0.70;0.70;;;;;;;24.67;54.10;99713.00;5110366;28;20194;-63
2023/09/12 07:13:47;;;;;;;0.70;0.70;;;;;;;24.77;53.39;99716.53;5108579;28;20199;-64
2023/09/12 07:16:14;;;;;;;0.80;0.80;;;;;;;24.86;52.79;99718.41;5107017;28;20268;-64
2023/09/12 07:18:40;;;;;;;0.67;0.67;;;;;;;25.07;53.20;99710.53;5110461;28;20198;-65
2023/09/12 07:21:11;;;;;;;0.60;0.60;;;;;;;25.19;51.67;99713.88;5109041;28;20198;-64
2023/09/12 07:23:37;;;;;;;0.77;0.70;;;;;;;25.20;51.97;99707.69;5110905;28;20669;-64
2023/09/12 07:26:04;;;;;;;0.50;0.50;;;;;;;25.37;50.81;99712.28;5110669;28;20190;-64
2023/09/12 07:28:31;;;;;;;0.50;0.50;;;;;;;25.38;50.48;99711.34;5110836;28;20220;-66
2023/09/12 07:30:59;;;;;;;0.53;0.53;;;;;;;25.36;52.07;99705.41;5110970;28;20199;-65
2023/09/12 07:33:26;;;;;;;0.90;0.80;;;;;;;25.38;52.58;99708.72;5111124;28;20247;-63
2023/09/12 07:35:53;;;;;;;0.73;0.73;;;;;;;25.33;52.50;99697.78;5110029;28;20289;-64
2023/09/12 07:38:21;;;;;;;0.53;0.53;;;;;;;25.46;51.90;99711.53;5111575;28;20210;-63
2023/09/12 07:40:48;;;;;;;1.90;0.67;;;;;;;25.53;51.89;99708.25;5110896;28;20631;-63
2023/09/12 07:43:14;;;;;;;3.50;0.73;;;;;;;25.78;52.87;99706.94;5109773;28;20194;-63
2023/09/12 07:45:41;;;;;;;0.60;0.60;;;;;;;25.97;51.49;99706.97;5110835;28;20670;-63
2023/09/12 07:48:11;;;;;;;0.87;0.83;;;;;;;26.09;49.80;99705.03;5110093;28;20228;-63
2023/09/12 07:50:38;;;;;;;1.83;0.60;;;;;;;26.17;49.83;99704.41;5109269;28;20201;-64
2023/09/12 07:53:05;;;;;;;0.67;0.67;;;;;;;26.18;48.29;99703.41;5108893;28;20237;-64
2023/09/12 07:55:36;;;;;;;0.87;0.50;;;;;;;26.41;49.17;99700.38;5108188;28;20202;-63
2023/09/12 07:58:02;;;;;;;0.50;0.50;;;;;;;26.45;47.59;99700.94;5108283;28;20210;-64
2023/09/12 08:00:29;;;;;;;0.60;0.60;;;;;;;26.58;48.83;99702.31;5110455;28;20260;-63
2023/09/12 08:02:56;;;;;;;0.77;0.50;;;;;;;26.66;47.28;99693.69;5110972;28;20691;-63
2023/09/12 08:05:24;;;;;;;2.63;0.63;;;;;;;26.25;46.60;99689.59;5109346;28;20252;-65
2023/09/12 08:07:50;;;;;;;0.93;0.93;;;;;;;26.17;49.85;99696.50;5109902;28;20195;-63
2023/09/12 08:10:17;;;;;;;0.97;0.83;;;;;;;26.30;49.08;99689.19;5109702;28;20669;-64
2023/09/12 08:12:44;;;;;;;0.50;0.50;;;;;;;26.47;48.51;99683.19;5110604;28;20195;-63
2023/09/12 08:15:11;;;;;;;0.67;0.67;;;;;;;26.59;49.31;99685.53;5110270;28;20195;-64
2023/09/12 08:17:38;;;;;;;0.60;0.60;;;;;;;26.78;50.19;99682.06;5110866;28;20215;-64
2023/09/12 08:20:06;;;;;;;0.50;0.50;;;;;;;26.92;47.54;99689.50;5110695;28;20637;-64
2023/09/12 08:22:34;;;;;;;0.60;0.60;;;;;;;26.90;48.96;99678.31;5111510;28;20231;-64
2023/09/12 08:25:01;;;;;;;0.40;0.40;;;;;;;26.97;49.83;99676.78;5114049;28;20199;-64
2023/09/12 08:27:27;;;;;;;0.40;0.40;;;;;;;27.20;46.79;99671.97;5114148;28;20191;-65
2023/09/12 08:29:54;;;;;;;0.73;0.73;;;;;;;27.28;47.10;99668.59;5115032;27;20267;-64
2023/09/12 08:32:21;;;;;;;0.53;0.40;;;;;;;27.36;48.51;99682.72;5112778;28;20234;-63
2023/09/12 08:34:48;;;;;;;0.50;0.50;;;;;;;27.45;47.50;99681.03;5113253;28;20203;-63
2023/09/12 08:37:14;;;;;;;0.50;0.50;;;;;;;27.56;44.80;99667.66;5113532;28;20226;-64
2023/09/12 08:39:45;;;;;;;0.70;0.70;;;;;;;27.71;43.84;99666.19;5114018;28;20739;-64
2023/09/12 08:42:14;;;;;;;0.40;0.40;;;;;;;27.72;43.48;99652.03;5113623;28;20191;-64
2023/09/12 08:44:41;;;;;;;0.30;0.30;;;;;;;28.02;43.04;99664.84;5112688;28;20286;-64
2023/09/12 08:47:09;;;;;;;0.40;0.40;;;;;;;28.15;42.12;99670.59;5111891;28;20218;-64
2023/09/12 08:49:36;;;;;;;0.40;0.40;;;;;;;27.93;41.91;99660.47;5113162;28;20199;-63
2023/09/12 08:52:04;;;;;;;0.47;0.40;;;;;;;27.74;42.69;99660.63;5113295;28;20201;-63
2023/09/12 08:54:30;;;;;;;0.30;0.30;;;;;;;27.85;43.27;99662.22;5112119;28;20733;-64
2023/09/12 08:56:59;;;;;;;0.50;0.50;;;;;;;27.96;42.44;99668.06;5112567;28;20689;-64
2023/09/12 08:59:27;;;;;;;0.30;0.30;;;;;;;28.05;43.29;99643.47;5113240;28;20251;-64
2023/09/12 09:01:55;;;;;;;0.50;0.50;;;;;;;28.04;43.08;99655.00;5112997;28;20633;-64
2023/09/12 09:04:26;;;;;;;0.77;0.60;;;;;;;28.09;43.38;99655.38;5112772;28;20230;-64
2023/09/12 09:06:54;;;;;;;0.40;0.40;;;;;;;28.39;42.29;99655.97;5113125;28;20191;-64
2023/09/12 09:09:23;;;;;;;0.40;0.40;;;;;;;28.45;39.92;99655.34;5113356;28;20259;-64
2023/09/12 09:11:50;;;;;;;0.40;0.40;;;;;;;28.26;39.56;99655.53;5113435;28;20199;-64
2023/09/12 09:14:18;;;;;;;0.87;0.87;;;;;;;28.13;40.41;99651.47;5113406;28;20195;-63
2023/09/12 09:16:45;;;;;;;0.40;0.40;;;;;;;28.31;41.13;99647.97;5113063;28;20203;-64
2023/09/12 09:19:12;;;;;;;0.50;0.50;;;;;;;28.54;38.92;99649.13;5113286;28;20194;-64
2023/09/12 09:21:40;;;;;;;0.53;0.53;;;;;;;28.65;37.51;99635.72;5111565;28;20199;-64
2023/09/12 09:24:09;;;;;;;0.33;0.33;;;;;;;28.73;38.84;99645.50;5112654;28;20199;-64
2023/09/12 09:26:47;;;;;;;0.43;0.43;;;;;;;28.93;37.68;99645.13;5113691;28;20203;-64
2023/09/12 09:29:16;;;;;;;0.40;0.40;;;;;;;29.13;37.34;99643.91;5113683;28;20244;-64
2023/09/12 09:31:45;;;;;;;0.60;0.60;;;;;;;29.26;38.45;99638.22;5113112;28;20365;-64
2023/09/12 09:34:14;;;;;;;0.40;0.40;;;;;;;29.30;40.63;99638.72;5113355;28;20191;-64
2023/09/12 09:36:44;;;;;;;0.97;0.50;;;;;;;29.30;40.53;99630.81;5113618;28;20233;-65
2023/09/12 09:39:11;;;;;;;2.43;0.57;;;;;;;29.45;40.20;99634.47;5111926;28;20213;-64
2023/09/12 09:41:38;;;;;;;0.60;0.60;;;;;;;29.59;37.10;99633.88;5113225;28;20195;-64
2023/09/12 09:44:06;;;;;;;0.32;0.32;;;;;;;29.52;35.53;99632.84;5112732;28;20251;-64
2023/09/12 09:46:33;;;;;;;0.30;0.30;;;;;;;29.63;35.50;99627.25;5112996;28;20218;-64
2023/09/12 09:49:01;;;;;;;0.40;0.40;;;;;;;29.67;36.20;99623.28;5111808;28;20290;-64
2023/09/12 09:51:31;;;;;;;0.40;0.40;;;;;;;29.69;37.19;99626.63;5107349;27;20275;-64
2023/09/12 09:53:57;;;;;;;0.50;0.50;;;;;;;29.56;36.68;99620.97;5112075;28;20248;-63
2023/09/12 09:56:25;;;;;;;0.43;0.43;;;;;;;29.46;37.45;99625.56;5112169;28;20289;-63
2023/09/12 09:58:53;;;;;;;0.40;0.40;;;;;;;29.54;39.22;99612.38;5112001;28;20685;-64
2023/09/12 10:01:22;;;;;;;0.40;0.40;;;;;;;29.53;35.74;99621.31;5111387;28;20194;-64
2023/09/12 10:03:50;;;;;;;0.50;0.50;;;;;;;29.40;36.94;99582.16;5111244;28;20742;-64
2023/09/12 10:06:19;;;;;;;0.45;0.45;;;;;;;29.67;35.67;99610.09;5109183;28;20567;-64
2023/09/12 10:08:51;;;;;;;0.40;0.40;;;;;;;29.61;35.84;99600.16;5111938;28;20255;-64
2023/09/12 10:11:19;;;;;;;0.40;0.40;;;;;;;29.58;36.56;99619.00;5111338;28;20678;-64
2023/09/12 10:13:53;;;;;;;0.50;0.50;;;;;;;29.57;36.03;99597.03;5112158;28;20198;-64
2023/09/12 10:16:23;;;;;;;0.40;0.40;;;;;;;29.65;35.56;99609.44;5109888;28;20202;-65
2023/09/12 10:18:59;;;;;;;0.53;0.53;;;;;;;29.51;35.49;99607.41;5107815;28;20286;-66
2023/09/12 10:21:31;;;;;;;0.50;0.50;;;;;;;29.76;38.41;99597.72;5110424;28;20578;-65
2023/09/12 10:23:59;;;;;;;0.50;0.50;;;;;;;29.84;37.50;99603.03;5111935;28;20230;-65
2023/09/12 10:26:26;;;;;;;0.50;0.50;;;;;;;29.97;37.25;99598.09;5110253;28;20342;-65
2023/09/12 10:28:54;;;;;;;0.52;0.52;;;;;;;30.19;37.38;99600.91;5111235;28;20191;-65
2023/09/12 10:31:24;;;;;;;0.60;0.60;;;;;;;30.29;36.71;99586.66;5110621;28;20206;-65
2023/09/12 10:33:52;;;;;;;0.60;0.60;;;;;;;30.41;37.42;99590.66;5111295;28;20669;-66
2023/09/12 10:36:19;;;;;;;1.52;0.45;;;;;;;30.31;35.68;99590.78;5111311;28;20225;-64
2023/09/12 10:38:49;;;;;;;0.50;0.50;;;;;;;30.38;35.40;99588.31;5110473;28;20254;-65
2023/09/12 10:41:16;;;;;;;0.88;0.60;;;;;;;30.41;35.94;99590.66;5111087;28;20211;-65
2023/09/12 10:43:46;;;;;;;0.52;0.52;;;;;;;30.46;36.43;99581.22;5110094;28;20217;-66
2023/09/12 10:46:13;;;;;;;0.38;0.38;;;;;;;30.33;36.30;99543.03;5110560;28;20226;-65
2023/09/12 10:48:41;;;;;;;1.77;1.13;;;;;;;30.41;35.26;99575.59;5110905;28;20195;-65
2023/09/12 10:51:09;;;;;;;0.68;0.68;;;;;;;30.41;35.78;99569.47;5110981;28;20256;-65
2023/09/12 10:53:37;;;;;;;0.43;0.43;;;;;;;30.33;35.42;99570.31;5111396;28;20711;-65
2023/09/12 10:56:19;;;;;;;0.50;0.50;;;;;;;30.27;35.74;99562.22;5110975;28;20258;-66
2023/09/12 10:59:12;;;;;;;1.17;1.00;;;;;;;30.28;35.69;99559.38;5110529;28;20653;-65
2023/09/12 11:01:40;;;;;;;1.95;0.60;;;;;;;30.34;35.99;99557.91;5111003;28;20241;-65
2023/09/12 11:04:37;;;;;;;0.70;0.70;;;;;;;30.49;37.03;99558.88;5112106;27;20198;-66
2023/09/12 11:07:33;;;;;;;0.70;0.70;;;;;;;30.50;34.98;99549.97;5110125;28;20202;-65
2023/09/12 11:10:27;;;;;;;2.60;0.63;;;;;;;30.43;34.99;99547.16;5111782;28;20627;-66
2023/09/12 11:12:57;;;;;;;0.60;0.60;;;;;;;30.53;35.79;99546.97;5075816;28;20724;-65
2023/09/12 11:15:26;;;;;;;0.80;0.77;;;;;;;30.44;35.57;99534.75;5112511;28;20222;-67
2023/09/12 11:18:03;;;;;;;0.60;0.60;;;;;;;30.43;35.41;99541.88;5111598;28;20663;-66
2023/09/12 11:20:51;;;;;;;0.82;0.60;;;;;;;30.37;35.99;99536.41;5111886;28;20644;-66
2023/09/12 11:23:18;;;;;;;0.60;0.60;;;;;;;30.33;35.94;99529.78;5111583;28;20203;-67
2023/09/12 11:25:45;;;;;;;0.60;0.60;;;;;;;30.36;35.02;99534.75;5111868;28;20198;-66
2023/09/12 11:28:13;;;;;;;0.70;0.70;;;;;;;30.29;36.04;99516.09;5110099;28;20257;-66
2023/09/12 11:30:57;;;;;;;2.10;0.80;;;;;;;30.52;35.98;99534.72;5111771;28;20195;-66
2023/09/12 11:33:24;;;;;;;0.80;0.80;;;;;;;30.66;35.98;99526.91;5110890;28;20237;-65
2023/09/12 11:35:54;;;;;;;0.52;0.52;;;;;;;30.76;35.43;99525.91;5111611;28;20653;-63
2023/09/12 11:38:28;;;;;;;0.60;0.60;;;;;;;30.93;37.00;99520.34;5111383;28;20678;-65
2023/09/12 11:40:56;;;;;;;0.80;0.80;;;;;;;30.99;36.18;99514.38;5111986;28;20659;-66
2023/09/12 11:43:25;;;;;;;0.55;0.55;;;;;;;31.06;35.72;99517.16;5111860;28;20259;-66
2023/09/12 11:45:53;;;;;;;1.10;1.00;;;;;;;30.88;35.19;99498.88;5111544;28;20800;-65
2023/09/12 11:48:20;;;;;;;0.88;0.88;;;;;;;30.91;34.95;99513.56;5111408;28;20195;-67
2023/09/12 11:50:51;;;;;;;2.58;0.90;;;;;;;30.80;35.49;99513.94;5111533;28;20331;-66